createdAt,value
2022-11-05T00:08:05.268Z,3.22
2022-11-05T00:23:47.584Z,3.22
2022-11-05T00:39:29.740Z,3.221
2022-11-05T00:55:12.369Z,3.22
2022-11-05T01:10:55.409Z,3.22
2022-11-05T01:26:37.780Z,3.22
2022-11-05T01:42:19.892Z,3.22
2022-11-05T01:58:02.270Z,3.22
2022-11-05T02:13:44.940Z,3.22
2022-11-05T02:29:27.039Z,3.22
2022-11-05T02:45:09.910Z,3.218
2022-11-05T03:00:52.508Z,3.218
2022-11-05T03:16:35.539Z,3.218
2022-11-05T03:32:18.023Z,3.217
2022-11-05T03:48:00.423Z,3.217
2022-11-05T04:03:42.647Z,3.216
2022-11-05T04:19:24.763Z,3.216
2022-11-05T04:35:07.583Z,3.217
2022-11-05T04:50:50.178Z,3.217
2022-11-05T05:06:32.449Z,3.216
2022-11-05T05:22:15.083Z,3.216
2022-11-05T05:37:57.504Z,3.216
2022-11-05T05:53:39.927Z,3.216
2022-11-05T06:09:22.875Z,3.216
2022-11-05T06:25:05.396Z,3.216
2022-11-05T06:40:48.033Z,3.216
2022-11-05T06:56:30.798Z,3.214
2022-11-05T07:12:13.502Z,3.214
2022-11-05T07:27:56.156Z,3.214
2022-11-05T07:43:38.910Z,3.218
2022-11-05T07:59:21.078Z,3.214
2022-11-05T08:15:03.475Z,3.214
2022-11-05T08:30:45.905Z,3.216
2022-11-05T08:46:28.262Z,3.206
2022-11-05T09:02:11.279Z,3.205
2022-11-05T09:17:53.512Z,3.207
2022-11-05T09:33:36.259Z,3.212
2022-11-05T09:49:19.242Z,3.228
2022-11-05T10:05:01.411Z,3.227
2022-11-05T10:20:43.707Z,3.249
2022-11-05T10:36:26.025Z,3.241
2022-11-05T10:52:08.426Z,3.241
2022-11-05T11:07:51.325Z,3.241
2022-11-05T11:23:33.975Z,3.259
2022-11-05T11:39:16.727Z,3.236
2022-11-05T11:54:59.574Z,3.232
2022-11-05T12:10:42.247Z,3.235
2022-11-05T12:26:24.366Z,3.236
2022-11-05T12:42:06.735Z,3.253
2022-11-05T12:57:49.112Z,3.267
2022-11-05T13:13:31.894Z,3.272
2022-11-05T13:29:14.666Z,3.348
2022-11-05T13:44:57.565Z,3.292
2022-11-05T14:00:40.399Z,3.274
2022-11-05T14:16:22.861Z,3.263
2022-11-05T14:32:05.638Z,3.256
2022-11-05T14:32:52.988Z,3.247
2022-11-05T14:48:35.179Z,3.245
2022-11-05T15:04:18.108Z,3.241
2022-11-05T15:20:00.321Z,3.236
2022-11-05T15:35:43.272Z,3.236
2022-11-05T15:51:25.733Z,3.231
2022-11-05T16:07:08.651Z,3.229
2022-11-05T16:22:51.441Z,3.228
2022-11-05T16:38:34.033Z,3.225
2022-11-05T16:54:16.231Z,3.227
2022-11-05T17:09:58.506Z,3.224
2022-11-05T17:25:40.882Z,3.221
2022-11-05T17:41:23.238Z,3.223
2022-11-05T17:57:05.713Z,3.221
2022-11-05T18:12:48.514Z,3.221
2022-11-05T18:28:31.044Z,3.213
2022-11-05T18:44:13.917Z,3.213
2022-11-05T18:59:56.641Z,3.212
2022-11-05T19:15:39.387Z,3.213
2022-11-05T19:31:22.247Z,3.213
2022-11-05T19:47:04.832Z,3.213
2022-11-05T20:02:47.363Z,3.212
2022-11-05T20:18:30.471Z,3.213
2022-11-05T20:34:13.078Z,3.212
2022-11-05T20:49:56.123Z,3.209
2022-11-05T21:05:38.653Z,3.21
2022-11-05T21:21:21.103Z,3.212
2022-11-05T21:37:04.270Z,3.212
2022-11-05T21:52:46.879Z,3.212
2022-11-05T22:08:29.112Z,3.21
2022-11-05T22:24:11.642Z,3.21
2022-11-05T22:39:54.381Z,3.21
2022-11-05T22:55:36.681Z,3.21
2022-11-05T23:11:19.113Z,3.21
2022-11-05T23:27:02.204Z,3.218
2022-11-05T23:42:44.317Z,3.218
2022-11-05T23:58:27.223Z,3.22
